首页
METAR-TAF:

METAR-TAF

机场 :

Richard B. Helgeson Airport

Two Harbors, 明尼蘇達州, 美国

纬度: 47-03N, 经度: 091-45W, 海拔: 328米

当前天气观测

该预报发布于19分钟前的18:08 UTC
风速13节,风向东转东北,有时为20节阵风
温度 5°C
湿度 52%
气压 1012 hPa
能見度: 16.1公里
天空无云

METAR: KTWM 281808Z AUTO 07013G20KT 10SM CLR 05/M04 A2989 RMK AO2

时间: 13:27 (18:27 UTC)


TAF: 丢失

超过4000个机场的气象观测和天气预报(METAR&TAF报告)。

可查询的气象台以黄色和红色小点在地图上表示。

将鼠标移到小点上方,可查看气象台名称。

然后点击查看天气观测和预报。

如需切换地图:点击带黑十字的绿色按钮放大地图;点击带横线的绿色按钮缩小地图;或者点击绿色箭头查看邻近地区的地图。


METAR-TAF: